createdAt,value
2023-05-02T00:02:43.990Z,8.40
2023-05-02T00:06:00.826Z,8.60
2023-05-02T00:09:17.013Z,8.60
2023-05-02T00:12:46.946Z,8.65
2023-05-02T00:15:50.728Z,7.73
2023-05-02T00:19:09.842Z,8.10
2023-05-02T00:22:13.805Z,8.20
2023-05-02T00:25:32.824Z,7.87
2023-05-02T00:28:49.804Z,8.00
2023-05-02T00:32:05.845Z,7.77
2023-05-02T00:35:09.903Z,8.23
2023-05-02T00:38:28.787Z,6.93
2023-05-02T00:41:32.925Z,6.93
2023-05-02T00:45:04.939Z,7.30
2023-05-02T00:48:09.064Z,6.47
2023-05-02T00:51:24.876Z,6.40
2023-05-02T00:54:54.124Z,6.20
2023-05-02T00:58:24.886Z,6.73
2023-05-02T01:01:45.122Z,5.33
2023-05-02T01:05:14.103Z,5.70
2023-05-02T01:08:41.900Z,4.70
2023-05-02T01:12:11.006Z,4.77
2023-05-02T01:15:27.070Z,4.30
2023-05-02T01:19:00.034Z,3.63
2023-05-02T01:22:15.974Z,3.60
2023-05-02T01:25:46.077Z,3.30
2023-05-02T01:29:21.028Z,3.00
2023-05-02T01:32:49.150Z,2.40
2023-05-02T01:36:05.064Z,2.73
2023-05-02T01:39:33.169Z,2.30
2023-05-02T01:43:01.035Z,2.30
2023-05-02T01:46:36.147Z,2.30
2023-05-02T01:49:52.100Z,2.07
2023-05-02T01:53:23.266Z,1.65
2023-05-02T01:56:40.489Z,1.67
2023-05-02T02:00:17.312Z,1.53
2023-05-02T02:03:52.176Z,1.30
2023-05-02T02:07:08.309Z,1.50
2023-05-02T02:10:39.227Z,1.65
2023-05-02T02:14:10.172Z,1.30
2023-05-02T02:17:26.143Z,1.40
2023-05-02T02:20:56.163Z,1.60
2023-05-02T02:24:24.210Z,1.60
2023-05-02T02:27:55.223Z,1.60
2023-05-02T02:31:11.377Z,1.30
2023-05-02T02:34:30.101Z,1.33
2023-05-02T02:37:50.415Z,1.47
2023-05-02T02:41:21.326Z,1.50
2023-05-02T02:44:37.376Z,1.30
2023-05-02T02:48:09.337Z,1.30
2023-05-02T02:51:29.295Z,1.73
2023-05-02T02:55:02.360Z,1.17
2023-05-02T02:58:21.365Z,1.30
2023-05-02T03:01:52.360Z,1.40
2023-05-02T03:05:08.687Z,1.30
2023-05-02T03:08:42.285Z,2.00
2023-05-02T03:12:14.365Z,1.60
2023-05-02T03:15:50.787Z,1.50
2023-05-02T03:19:06.473Z,1.50
2023-05-02T03:22:24.425Z,1.00
2023-05-02T03:25:28.440Z,1.35
2023-05-02T03:29:03.467Z,1.40
2023-05-02T03:32:19.440Z,1.20
2023-05-02T03:35:35.375Z,1.73
2023-05-02T03:39:03.487Z,1.85
2023-05-02T03:42:32.636Z,1.60
2023-05-02T03:46:03.511Z,2.00
2023-05-02T03:49:22.660Z,2.20
2023-05-02T03:52:50.529Z,1.70
2023-05-02T03:56:07.487Z,1.60
2023-05-02T03:59:23.505Z,2.40
2023-05-02T04:02:55.567Z,2.43
2023-05-02T04:06:11.585Z,2.80
2023-05-02T04:09:27.560Z,2.70
2023-05-02T04:12:46.416Z,2.50
2023-05-02T04:16:02.664Z,2.63
2023-05-02T04:19:35.516Z,2.53
2023-05-02T04:22:51.540Z,2.20
2023-05-02T04:26:08.767Z,2.60
2023-05-02T04:29:24.434Z,2.70
2023-05-02T04:32:57.614Z,2.27
2023-05-02T04:36:32.703Z,3.17
2023-05-02T04:39:48.650Z,2.57
2023-05-02T04:43:04.715Z,2.40
2023-05-02T04:46:21.670Z,2.05
2023-05-02T04:49:39.562Z,2.60
2023-05-02T04:53:12.644Z,2.70
2023-05-02T04:56:31.752Z,2.40
2023-05-02T04:59:47.764Z,2.43
2023-05-02T05:03:30.498Z,1.93
2023-05-02T05:06:59.851Z,2.10
2023-05-02T05:10:35.783Z,2.67
2023-05-02T05:13:51.800Z,2.13
2023-05-02T05:17:07.693Z,2.13
2023-05-02T05:20:23.695Z,2.10
2023-05-02T05:23:39.718Z,3.23
2023-05-02T05:27:11.736Z,2.20
2023-05-02T05:30:27.782Z,1.97
2023-05-02T05:33:44.139Z,2.45
2023-05-02T05:36:59.748Z,1.87
2023-05-02T05:40:15.767Z,2.00
2023-05-02T05:43:44.893Z,2.20
2023-05-02T05:47:00.936Z,1.80
2023-05-02T05:50:21.214Z,1.53
2023-05-02T05:54:04.588Z,2.00
2023-05-02T05:57:47.319Z,1.73
2023-05-02T06:01:35.953Z,1.63
2023-05-02T06:05:33.488Z,1.35
2023-05-02T06:09:11.794Z,2.15
2023-05-02T06:12:43.908Z,2.25
2023-05-02T06:16:13.359Z,1.50
2023-05-02T06:20:16.597Z,1.20
2023-05-02T06:23:58.630Z,1.75
2023-05-02T06:27:33.775Z,1.63
2023-05-02T06:30:53.829Z,1.57
2023-05-02T06:34:38.097Z,1.60
2023-05-02T06:38:12.985Z,1.90
2023-05-02T06:41:33.185Z,1.40
2023-05-02T06:44:50.062Z,1.80
2023-05-02T06:48:09.188Z,1.40
2023-05-02T06:51:13.064Z,1.90
2023-05-02T06:54:48.125Z,1.60
2023-05-02T06:57:52.158Z,1.50
2023-05-02T07:01:11.237Z,1.40
2023-05-02T07:04:27.826Z,2.20
2023-05-02T07:07:43.951Z,1.85
2023-05-02T07:11:01.063Z,2.10
2023-05-02T07:14:32.232Z,1.80
2023-05-02T07:17:48.127Z,1.47
2023-05-02T07:21:16.068Z,1.47
2023-05-02T07:24:32.164Z,1.93
2023-05-02T07:28:01.101Z,1.60
2023-05-02T07:31:05.119Z,1.73
2023-05-02T07:34:21.205Z,1.90
2023-05-02T07:37:25.285Z,1.83
2023-05-02T07:40:41.159Z,2.03
2023-05-02T07:44:01.188Z,1.93
2023-05-02T07:47:17.140Z,1.80
2023-05-02T07:50:24.281Z,2.05
2023-05-02T07:53:40.293Z,1.80
2023-05-02T07:56:56.299Z,2.30
2023-05-02T08:00:25.276Z,1.33
2023-05-02T08:03:44.517Z,1.63
2023-05-02T08:06:48.366Z,1.97
2023-05-02T08:10:04.526Z,1.60
2023-05-02T08:13:08.263Z,1.95
2023-05-02T08:16:40.566Z,2.75
2023-05-02T08:19:44.256Z,2.03
2023-05-02T08:23:03.299Z,1.90
2023-05-02T08:26:08.551Z,1.93
2023-05-02T08:30:00.802Z,1.90
2023-05-02T08:33:19.436Z,1.90
2023-05-02T08:36:38.325Z,2.03
2023-05-02T08:39:42.395Z,1.80
2023-05-02T08:43:10.326Z,1.83
2023-05-02T08:46:26.373Z,1.60
2023-05-02T08:49:58.618Z,2.30
2023-05-02T08:53:15.397Z,1.80
2023-05-02T08:56:46.503Z,2.50
2023-05-02T08:59:50.437Z,1.80
2023-05-02T09:03:23.792Z,1.77
2023-05-02T09:06:39.534Z,2.37
2023-05-02T09:10:10.550Z,2.27
2023-05-02T09:13:26.593Z,2.10
2023-05-02T09:16:57.671Z,1.90
2023-05-02T09:20:13.431Z,1.90
2023-05-02T09:23:48.659Z,1.70
2023-05-02T09:27:04.516Z,2.00
2023-05-02T09:30:48.644Z,1.90
2023-05-02T09:34:04.632Z,2.33
2023-05-02T09:37:23.517Z,1.70
2023-05-02T09:40:41.566Z,1.90
2023-05-02T09:43:58.519Z,1.80
2023-05-02T09:47:14.721Z,1.83
2023-05-02T09:51:00.678Z,1.83
2023-05-02T09:54:16.885Z,2.00
2023-05-02T09:57:51.658Z,1.80
2023-05-02T10:01:07.702Z,1.80
2023-05-02T10:04:39.571Z,1.90
2023-05-02T10:08:08.712Z,1.80
2023-05-02T10:11:39.747Z,2.00
2023-05-02T10:14:59.826Z,1.70
2023-05-02T10:18:27.759Z,1.60
2023-05-02T10:21:46.721Z,1.67
2023-05-02T10:25:14.652Z,1.65
2023-05-02T10:28:30.742Z,1.60
2023-05-02T10:32:05.966Z,1.43
2023-05-02T10:35:21.798Z,1.50
2023-05-02T10:38:52.711Z,1.60
2023-05-02T10:42:08.831Z,1.67
2023-05-02T10:45:37.736Z,1.40
2023-05-02T10:48:54.880Z,1.45
2023-05-02T10:52:23.034Z,1.75
2023-05-02T10:55:41.832Z,1.30
2023-05-02T10:59:09.640Z,1.35
2023-05-02T11:02:13.849Z,1.35
2023-05-02T11:05:45.892Z,1.27
2023-05-02T11:08:49.886Z,1.00
2023-05-02T11:12:20.884Z,1.20
2023-05-02T11:15:24.879Z,1.30
2023-05-02T11:18:40.887Z,1.40
2023-05-02T11:21:57.954Z,1.15
2023-05-02T11:25:29.251Z,1.23
2023-05-02T11:28:50.932Z,1.13
2023-05-02T11:32:22.027Z,1.00
2023-05-02T11:35:49.748Z,1.70
2023-05-02T11:39:22.073Z,0.90
2023-05-02T11:42:26.012Z,1.20
2023-05-02T11:46:00.318Z,1.20
2023-05-02T11:49:18.976Z,1.00
2023-05-02T11:52:47.054Z,1.20
2023-05-02T11:56:04.120Z,1.30
2023-05-02T11:59:24.018Z,1.10
2023-05-02T12:02:28.188Z,1.05
2023-05-02T12:05:50.049Z,0.90
2023-05-02T12:09:11.106Z,1.10
2023-05-02T12:12:45.973Z,1.20
2023-05-02T12:16:02.092Z,1.10
2023-05-02T12:19:32.988Z,1.40
2023-05-02T12:22:49.104Z,1.30
2023-05-02T12:26:17.064Z,1.15
2023-05-02T12:29:37.163Z,1.00
2023-05-02T12:32:56.209Z,1.03
2023-05-02T12:36:12.165Z,1.00
2023-05-02T12:39:28.137Z,0.95
2023-05-02T12:42:44.133Z,0.90
2023-05-02T12:46:13.189Z,0.90
2023-05-02T12:49:29.092Z,1.93
2023-05-02T12:53:02.365Z,1.37
2023-05-02T12:56:18.155Z,1.33
2023-05-02T12:59:56.109Z,1.40
2023-05-02T13:03:13.214Z,1.50
2023-05-02T13:06:32.306Z,1.77
2023-05-02T13:09:36.169Z,1.10
2023-05-02T13:13:07.233Z,1.20
2023-05-02T13:16:11.370Z,1.60
2023-05-02T13:19:50.468Z,1.40
2023-05-02T13:22:48.290Z,1.10
2023-05-02T13:26:04.259Z,1.47
2023-05-02T13:29:08.296Z,1.30
2023-05-02T13:32:39.403Z,1.00
2023-05-02T13:35:56.401Z,1.20
2023-05-02T13:39:18.381Z,1.40
2023-05-02T13:42:34.294Z,0.97
2023-05-02T13:45:50.343Z,1.03
2023-05-02T13:48:54.403Z,0.87
2023-05-02T13:52:26.276Z,1.07
2023-05-02T13:55:31.368Z,1.17
2023-05-02T13:58:48.433Z,1.30
2023-05-02T14:01:52.469Z,0.60
2023-05-02T14:05:09.445Z,1.17
2023-05-02T14:08:26.336Z,0.95
2023-05-02T14:11:45.476Z,0.93
2023-05-02T14:14:49.457Z,0.80
2023-05-02T14:18:05.459Z,0.67
2023-05-02T14:21:21.488Z,1.20
2023-05-02T14:24:56.483Z,0.80
2023-05-02T14:28:00.522Z,0.90
2023-05-02T14:31:35.902Z,1.03
2023-05-02T14:34:57.491Z,0.93
2023-05-02T14:38:14.494Z,0.80
2023-05-02T14:41:31.564Z,0.70
2023-05-02T14:44:50.511Z,0.97
2023-05-02T14:47:54.584Z,0.75
2023-05-02T14:51:10.603Z,0.50
2023-05-02T14:54:14.502Z,0.60
2023-05-02T14:57:50.601Z,0.97
2023-05-02T15:00:54.707Z,0.60
2023-05-02T15:04:13.678Z,1.00
2023-05-02T15:07:29.805Z,1.40
2023-05-02T15:10:59.662Z,0.80
2023-05-02T15:14:16.682Z,1.03
2023-05-02T15:17:38.546Z,0.80
2023-05-02T15:20:42.697Z,1.23
2023-05-02T15:24:01.617Z,0.50
2023-05-02T15:27:05.605Z,1.00
2023-05-02T15:30:38.690Z,0.80
2023-05-02T15:33:45.624Z,0.70
2023-05-02T15:37:04.648Z,0.60
2023-05-02T15:40:08.727Z,0.80
2023-05-02T15:43:24.650Z,0.90
2023-05-02T15:46:41.947Z,0.90
2023-05-02T15:50:01.039Z,0.60
2023-05-02T15:53:04.766Z,0.60
2023-05-02T15:56:35.780Z,1.23
2023-05-02T15:59:39.754Z,0.60
2023-05-02T16:03:14.792Z,1.10
2023-05-02T16:06:43.013Z,0.70
2023-05-02T16:09:46.752Z,0.83
2023-05-02T16:13:17.890Z,1.17
2023-05-02T16:16:21.945Z,0.77
2023-05-02T16:19:54.726Z,0.60
2023-05-02T16:23:10.834Z,0.83
2023-05-02T16:26:30.772Z,0.80
2023-05-02T16:29:34.861Z,1.15
2023-05-02T16:33:05.850Z,0.60
2023-05-02T16:36:28.892Z,0.80
2023-05-02T16:39:44.827Z,0.63
2023-05-02T16:42:48.817Z,1.00
2023-05-02T16:46:25.936Z,0.70
2023-05-02T16:49:29.828Z,0.60
2023-05-02T16:53:02.135Z,0.70
2023-05-02T16:56:05.958Z,0.60
2023-05-02T16:59:21.905Z,0.80
2023-05-02T17:02:25.915Z,0.75
2023-05-02T17:05:41.902Z,0.53
2023-05-02T17:08:58.998Z,0.93
2023-05-02T17:12:14.903Z,0.70
2023-05-02T17:15:18.933Z,1.43
2023-05-02T17:18:49.938Z,0.80
2023-05-02T17:21:54.017Z,0.80
2023-05-02T17:25:22.972Z,0.80
2023-05-02T17:28:27.071Z,0.90
2023-05-02T17:31:46.042Z,0.70
2023-05-02T17:34:49.988Z,0.97
2023-05-02T17:38:12.028Z,0.97
2023-05-02T17:41:31.998Z,1.13
2023-05-02T17:44:51.041Z,0.80
2023-05-02T17:47:55.137Z,0.70
2023-05-02T17:51:45.976Z,0.65
2023-05-02T17:55:50.441Z,0.70
2023-05-02T17:59:59.348Z,0.80
2023-05-02T18:03:26.580Z,0.70
2023-05-02T18:07:06.297Z,0.90
2023-05-02T18:10:58.514Z,0.60
2023-05-02T18:14:25.749Z,0.70
2023-05-02T18:21:03.825Z,0.90
2023-05-02T18:24:59.643Z,1.05
2023-05-02T18:28:15.771Z,0.70
2023-05-02T18:32:11.962Z,0.90
2023-05-02T18:36:14.354Z,0.60
2023-05-02T18:39:45.386Z,0.90
2023-05-02T18:42:52.247Z,0.80
2023-05-02T18:46:11.181Z,1.03
2023-05-02T18:49:15.324Z,1.03
2023-05-02T18:52:50.235Z,1.05
2023-05-02T18:55:54.223Z,0.65
2023-05-02T18:59:13.281Z,0.85
2023-05-02T19:02:17.272Z,0.80
2023-05-02T19:05:36.290Z,1.15
2023-05-02T19:08:54.344Z,0.80
2023-05-02T19:12:10.265Z,0.83
2023-05-02T19:15:14.294Z,1.10
2023-05-02T19:18:33.403Z,0.80
2023-05-02T19:21:37.438Z,0.70
2023-05-02T19:25:12.475Z,0.50
2023-05-02T19:28:16.637Z,0.67
2023-05-02T19:31:47.426Z,0.67
2023-05-02T19:34:51.433Z,0.50
2023-05-02T19:38:08.476Z,0.80
2023-05-02T19:41:25.500Z,0.70
2023-05-02T19:44:45.037Z,0.60
2023-05-02T19:47:49.536Z,0.70
2023-05-02T19:51:20.466Z,0.70
2023-05-02T19:54:38.492Z,0.70
2023-05-02T19:58:10.417Z,1.25
2023-05-02T20:01:26.463Z,1.10
2023-05-02T20:04:42.445Z,1.10
2023-05-02T20:07:46.550Z,0.90
2023-05-02T20:11:03.487Z,0.63
2023-05-02T20:14:20.606Z,1.00
2023-05-02T20:17:39.397Z,0.70
2023-05-02T20:20:55.525Z,1.00
2023-05-02T20:24:11.518Z,0.90
2023-05-02T20:27:15.495Z,0.97
2023-05-02T20:30:47.499Z,0.83
2023-05-02T20:33:51.649Z,0.87
2023-05-02T20:37:23.898Z,0.80
2023-05-02T20:40:42.797Z,1.15
2023-05-02T20:44:02.799Z,0.85
2023-05-02T20:47:24.200Z,0.97
2023-05-02T20:50:43.726Z,1.00
2023-05-02T20:53:47.690Z,0.90
2023-05-02T20:57:03.848Z,0.90
2023-05-02T21:00:07.867Z,0.80
2023-05-02T21:03:37.662Z,0.75
2023-05-02T21:06:41.662Z,0.70
2023-05-02T21:10:01.137Z,1.20
2023-05-02T21:13:04.709Z,0.77
2023-05-02T21:16:41.834Z,1.00
2023-05-02T21:20:01.996Z,0.87
2023-05-02T21:23:20.937Z,1.10
2023-05-02T21:26:24.832Z,0.70
2023-05-02T21:29:43.807Z,1.27
2023-05-02T21:32:47.793Z,1.30
2023-05-02T21:36:23.738Z,0.90
2023-05-02T21:39:27.870Z,1.23
2023-05-02T21:42:46.892Z,1.00
2023-05-02T21:46:02.806Z,0.83
2023-05-02T21:49:33.608Z,0.70
2023-05-02T21:52:50.950Z,0.90
2023-05-02T21:56:18.794Z,1.30
2023-05-02T21:59:22.810Z,1.05
2023-05-02T22:02:42.011Z,1.03
2023-05-02T22:06:13.041Z,0.60
2023-05-02T22:09:33.631Z,0.93
2023-05-02T22:12:51.891Z,0.50
2023-05-02T22:16:10.912Z,0.60
2023-05-02T22:19:29.985Z,0.80
2023-05-02T22:22:33.858Z,1.05
2023-05-02T22:26:08.874Z,0.80
2023-05-02T22:29:13.123Z,0.67
2023-05-02T22:32:29.033Z,0.73
2023-05-02T22:35:33.026Z,0.90
2023-05-02T22:38:51.999Z,1.03
2023-05-02T22:42:08.927Z,1.00
2023-05-02T22:45:28.086Z,0.90
2023-05-02T22:48:32.043Z,1.20
2023-05-02T22:52:00.030Z,1.00
2023-05-02T22:55:04.036Z,0.97
2023-05-02T22:58:37.776Z,1.03
2023-05-02T23:01:57.150Z,0.97
2023-05-02T23:05:16.106Z,0.93
2023-05-02T23:08:20.273Z,0.93
2023-05-02T23:11:39.109Z,0.70
2023-05-02T23:14:59.157Z,0.80
2023-05-02T23:18:18.112Z,1.00
2023-05-02T23:21:40.069Z,1.17
2023-05-02T23:25:08.054Z,0.93
2023-05-02T23:28:12.163Z,0.70
2023-05-02T23:31:44.237Z,1.00
2023-05-02T23:35:00.213Z,0.90
2023-05-02T23:38:31.128Z,1.20
2023-05-02T23:41:47.259Z,1.00
2023-05-02T23:45:06.219Z,1.17
2023-05-02T23:48:23.361Z,1.50
2023-05-02T23:51:39.183Z,1.63
2023-05-02T23:54:44.330Z,1.47
2023-05-02T23:58:03.212Z,1.60
